createdAt,value
2022-10-22T00:00:15.242Z,100564.69
2022-10-22T00:02:43.008Z,100556.13
2022-10-22T00:05:11.289Z,100554.78
2022-10-22T00:07:38.666Z,100563.69
2022-10-22T00:10:07.400Z,100563.19
2022-10-22T00:12:35.081Z,100564.44
2022-10-22T00:15:02.479Z,100570.44
2022-10-22T00:17:29.378Z,100578.97
2022-10-22T00:19:56.326Z,100577.63
2022-10-22T00:22:23.213Z,100571.44
2022-10-22T00:24:50.131Z,100576.72
2022-10-22T00:27:17.120Z,100589.63
2022-10-22T00:29:44.003Z,100590.69
2022-10-22T00:32:11.064Z,100574.47
2022-10-22T00:34:37.948Z,100581.53
2022-10-22T00:37:05.145Z,100581.25
2022-10-22T00:39:32.232Z,100588.06
2022-10-22T00:41:59.785Z,100597.94
2022-10-22T00:45:04.561Z,100593.78
2022-10-22T00:47:36.153Z,100591.00
2022-10-22T00:50:06.365Z,100604.38
2022-10-22T00:52:33.620Z,100598.78
2022-10-22T00:55:01.652Z,100603.78
2022-10-22T00:57:28.880Z,100599.78
2022-10-22T00:59:57.621Z,100607.84
2022-10-22T01:02:24.600Z,100612.47
2022-10-22T01:04:51.496Z,100610.31
2022-10-22T01:07:22.672Z,100612.69
2022-10-22T01:10:18.436Z,100618.13
2022-10-22T01:13:07.929Z,100618.13
2022-10-22T01:16:04.803Z,100620.44
2022-10-22T01:18:47.636Z,100622.88
2022-10-22T01:21:20.302Z,100627.63
2022-10-22T01:24:19.167Z,100637.31
2022-10-22T01:27:04.334Z,100632.31
2022-10-22T01:29:51.038Z,100630.56
2022-10-22T01:32:22.745Z,100626.75
2022-10-22T01:34:59.212Z,100635.31
2022-10-22T01:37:31.043Z,100637.38
2022-10-22T01:40:00.543Z,100638.13
2022-10-22T01:42:27.896Z,100639.53
2022-10-22T01:44:54.922Z,100636.47
2022-10-22T01:47:47.951Z,100641.66
2022-10-22T01:50:52.117Z,100642.53
2022-10-22T01:53:27.257Z,100635.34
2022-10-22T01:56:11.965Z,100640.34
2022-10-22T01:59:07.224Z,100638.97
2022-10-22T02:02:05.895Z,100632.78
2022-10-22T02:04:48.815Z,100638.84
2022-10-22T02:07:20.538Z,100640.03
2022-10-22T02:09:49.411Z,100628.75
2022-10-22T02:12:20.057Z,100635.31
2022-10-22T02:14:48.478Z,100642.38
2022-10-22T02:17:21.777Z,100640.91
2022-10-22T02:19:56.868Z,100630.19
2022-10-22T02:22:25.541Z,100641.19
2022-10-22T02:24:52.483Z,100639.81
2022-10-22T02:27:40.676Z,100639.13
2022-10-22T02:30:08.904Z,100641.63
2022-10-22T02:32:59.665Z,100641.75
2022-10-22T02:35:29.162Z,100648.09
2022-10-22T02:37:58.356Z,100651.81
2022-10-22T02:40:26.517Z,100650.78
2022-10-22T02:42:53.768Z,100654.88
2022-10-22T02:45:21.072Z,100657.56
2022-10-22T02:47:48.352Z,100652.47
2022-10-22T02:50:15.469Z,100650.47
2022-10-22T02:52:42.764Z,100662.81
2022-10-22T02:55:09.926Z,100667.34
2022-10-22T02:57:36.822Z,100661.22
2022-10-22T03:00:13.770Z,100660.81
2022-10-22T03:02:40.786Z,100670.00
2022-10-22T03:05:08.525Z,100672.69
2022-10-22T03:07:35.868Z,100676.81
2022-10-22T03:10:03.126Z,100666.41
2022-10-22T03:12:30.085Z,100670.50
2022-10-22T03:14:57.048Z,100672.00
2022-10-22T03:17:24.288Z,100680.25
2022-10-22T03:19:51.163Z,100679.59
2022-10-22T03:22:25.588Z,100681.53
2022-10-22T03:24:58.411Z,100691.19
2022-10-22T03:27:28.472Z,100684.00
2022-10-22T03:29:56.852Z,100686.88
2022-10-22T03:32:23.759Z,100686.06
2022-10-22T03:34:50.708Z,100693.19
2022-10-22T03:37:17.747Z,100698.88
2022-10-22T03:39:45.056Z,100694.56
2022-10-22T03:42:13.396Z,100706.25
2022-10-22T03:44:41.048Z,100693.84
2022-10-22T03:47:08.304Z,100700.22
2022-10-22T03:49:35.446Z,100704.63
2022-10-22T03:52:14.198Z,100704.50
2022-10-22T03:54:42.431Z,100707.25
2022-10-22T03:57:10.657Z,100704.50
2022-10-22T03:59:44.715Z,100698.59
2022-10-22T04:02:13.867Z,100707.38
2022-10-22T04:04:40.803Z,100712.28
2022-10-22T04:07:08.803Z,100717.31
2022-10-22T04:09:36.124Z,100709.41
2022-10-22T04:12:05.491Z,100700.78
2022-10-22T04:14:32.830Z,100716.78
2022-10-22T04:16:59.931Z,100717.31
2022-10-22T04:19:26.868Z,100719.72
2022-10-22T04:21:53.875Z,100725.94
2022-10-22T04:24:20.831Z,100726.09
2022-10-22T04:26:47.878Z,100724.00
2022-10-22T04:29:16.216Z,100731.22
2022-10-22T04:31:43.776Z,100732.44
2022-10-22T04:34:10.720Z,100737.63
2022-10-22T04:36:37.723Z,100739.44
2022-10-22T04:39:05.992Z,100743.69
2022-10-22T04:41:36.619Z,100738.88
2022-10-22T04:44:05.141Z,100747.19
2022-10-22T04:46:34.857Z,100744.75
2022-10-22T04:49:03.968Z,100747.22
2022-10-22T04:51:32.256Z,100752.47
2022-10-22T04:53:59.228Z,100759.44
2022-10-22T04:56:31.126Z,100759.38
2022-10-22T04:59:04.965Z,100769.28
2022-10-22T05:01:41.912Z,100771.56
2022-10-22T05:04:15.123Z,100775.19
2022-10-22T05:06:42.790Z,100776.34
2022-10-22T05:09:15.537Z,100775.47
2022-10-22T05:11:48.287Z,100775.84
2022-10-22T05:14:21.517Z,100785.44
2022-10-22T05:16:49.419Z,100780.78
2022-10-22T05:19:23.822Z,100793.53
2022-10-22T05:21:53.189Z,100786.56
2022-10-22T05:24:20.412Z,100796.78
2022-10-22T05:26:51.052Z,100791.75
2022-10-22T05:29:18.502Z,100805.38
2022-10-22T05:31:45.420Z,100797.47
2022-10-22T05:34:12.822Z,100810.91
2022-10-22T05:36:39.811Z,100812.97
2022-10-22T05:39:07.131Z,100814.75
2022-10-22T05:41:35.838Z,100819.66
2022-10-22T05:44:03.624Z,100817.69
2022-10-22T05:46:35.019Z,100820.81
2022-10-22T05:49:08.181Z,100825.84
2022-10-22T05:51:37.414Z,100825.97
2022-10-22T05:54:07.812Z,100828.19
2022-10-22T05:56:35.776Z,100832.72
2022-10-22T06:01:35.790Z,100837.94
2022-10-22T06:04:06.739Z,100839.16
2022-10-22T06:06:42.389Z,100846.31
2022-10-22T06:09:26.567Z,100843.34
2022-10-22T06:11:55.610Z,100852.63
2022-10-22T06:14:23.425Z,100859.41
2022-10-22T06:16:51.018Z,100851.16
2022-10-22T06:19:21.083Z,100849.63
2022-10-22T06:21:48.696Z,100861.69
2022-10-22T06:24:16.133Z,100853.25
2022-10-22T06:26:43.122Z,100861.72
2022-10-22T06:29:10.146Z,100868.94
2022-10-22T06:31:37.241Z,100877.59
2022-10-22T06:34:11.994Z,100883.97
2022-10-22T06:39:06.516Z,100875.59
2022-10-22T06:41:33.497Z,100875.50
2022-10-22T06:44:00.548Z,100878.94
2022-10-22T06:46:27.945Z,100892.66
2022-10-22T06:49:00.629Z,100890.50
2022-10-22T06:51:27.885Z,100903.22
2022-10-22T06:53:56.516Z,100905.06
2022-10-22T06:56:26.469Z,100910.88
2022-10-22T06:58:56.110Z,100906.44
2022-10-22T07:01:29.730Z,100914.56
2022-10-22T07:03:57.451Z,100919.81
2022-10-22T07:06:26.955Z,100927.69
2022-10-22T07:08:59.567Z,100932.72
2022-10-22T07:11:40.796Z,100932.31
2022-10-22T07:14:08.066Z,100937.16
2022-10-22T07:16:35.194Z,100948.59
2022-10-22T07:19:03.812Z,100952.69
2022-10-22T07:21:31.768Z,100951.38
2022-10-22T07:23:59.304Z,100961.22
2022-10-22T07:26:30.613Z,100955.03
2022-10-22T07:28:58.112Z,100967.38
2022-10-22T07:31:25.252Z,100971.28
2022-10-22T07:33:52.632Z,100977.00
2022-10-22T07:36:20.025Z,100973.47
2022-10-22T07:38:50.081Z,100985.50
2022-10-22T07:41:17.687Z,100989.03
2022-10-22T07:43:44.974Z,100987.06
2022-10-22T07:46:12.452Z,101003.63
2022-10-22T07:48:39.576Z,101007.50
2022-10-22T07:51:07.584Z,101015.72
2022-10-22T07:53:34.723Z,101016.34
2022-10-22T07:56:01.669Z,101020.94
2022-10-22T07:58:29.152Z,101029.97
2022-10-22T08:01:00.829Z,101026.22
2022-10-22T08:03:28.921Z,101030.25
2022-10-22T08:05:56.134Z,101033.88
2022-10-22T08:08:27.081Z,101042.34
2022-10-22T08:10:59.032Z,101042.13
2022-10-22T08:13:27.487Z,101056.22
2022-10-22T08:15:57.334Z,101052.53
2022-10-22T08:18:25.161Z,101055.84
2022-10-22T08:20:52.365Z,101058.34
2022-10-22T08:23:25.871Z,101056.19
2022-10-22T08:25:56.639Z,101058.66
2022-10-22T08:28:23.810Z,101057.84
2022-10-22T08:30:50.840Z,101057.59
2022-10-22T08:33:17.818Z,101063.09
2022-10-22T08:35:51.611Z,101061.91
2022-10-22T08:38:24.947Z,101066.09
2022-10-22T08:41:06.651Z,101073.31
2022-10-22T08:43:33.494Z,101067.41
2022-10-22T08:46:17.329Z,101080.03
2022-10-22T08:48:52.117Z,101085.69
2022-10-22T08:51:26.536Z,101098.22
2022-10-22T08:54:27.486Z,101085.63
2022-10-22T08:57:52.446Z,101103.03
2022-10-22T09:00:48.126Z,101096.81
2022-10-22T09:03:27.118Z,101104.16
2022-10-22T09:06:12.353Z,101100.75
2022-10-22T09:08:40.783Z,101107.13
2022-10-22T09:11:24.306Z,101101.47
2022-10-22T09:13:54.021Z,101108.66
2022-10-22T09:16:51.681Z,101116.13
2022-10-22T09:19:36.281Z,101121.94
2022-10-22T09:22:27.949Z,101115.00
2022-10-22T09:25:37.232Z,101126.56
2022-10-22T09:28:05.132Z,101131.50
2022-10-22T09:30:38.055Z,101130.06
2022-10-22T09:33:07.633Z,101120.53
2022-10-22T09:35:52.738Z,101127.25
2022-10-22T09:38:25.598Z,101128.94
2022-10-22T09:40:55.657Z,101133.16
2022-10-22T09:43:23.041Z,101133.50
2022-10-22T09:45:58.665Z,101144.59
2022-10-22T09:48:50.073Z,101138.44
2022-10-22T09:51:24.635Z,101132.00
2022-10-22T09:54:01.714Z,101134.97
2022-10-22T09:56:43.675Z,101129.31
2022-10-22T09:59:18.646Z,101136.50
2022-10-22T10:01:45.973Z,101129.31
2022-10-22T10:04:16.124Z,101137.63
2022-10-22T10:06:45.015Z,101151.53
2022-10-22T10:09:22.043Z,101145.66
2022-10-22T10:12:20.060Z,101148.81
2022-10-22T10:15:03.539Z,101156.72
2022-10-22T10:18:24.318Z,101145.94
2022-10-22T10:21:26.856Z,101157.94
2022-10-22T10:24:21.109Z,101141.13
2022-10-22T10:27:10.006Z,101149.50
2022-10-22T10:30:16.162Z,101138.97
2022-10-22T10:33:12.071Z,101148.94
2022-10-22T10:36:04.216Z,101149.28
2022-10-22T10:39:03.823Z,101154.16
2022-10-22T10:42:09.599Z,101145.63
2022-10-22T10:45:01.488Z,101149.06
2022-10-22T10:47:55.597Z,101152.91
2022-10-22T10:50:57.210Z,101148.50
2022-10-22T10:53:54.391Z,101163.63
2022-10-22T10:56:42.514Z,101156.00
2022-10-22T10:59:37.239Z,101158.19
2022-10-22T11:02:18.929Z,101168.34
2022-10-22T11:05:22.499Z,101165.84
2022-10-22T11:08:20.729Z,101172.41
2022-10-22T11:10:56.259Z,101170.56
2022-10-22T11:13:31.238Z,101168.78
2022-10-22T11:16:46.148Z,101161.97
2022-10-22T11:19:49.730Z,101160.22
2022-10-22T11:22:26.745Z,101169.94
2022-10-22T11:25:18.537Z,101158.06
2022-10-22T11:28:09.150Z,101168.28
2022-10-22T11:30:41.120Z,101171.00
2022-10-22T11:33:16.285Z,101170.19
2022-10-22T11:35:45.628Z,101169.31
2022-10-22T11:38:25.748Z,101160.84
2022-10-22T11:41:06.274Z,101175.75
2022-10-22T11:43:51.847Z,101171.66
2022-10-22T11:46:18.673Z,101173.38
2022-10-22T11:49:23.394Z,101181.06
2022-10-22T11:51:51.124Z,101172.75
2022-10-22T11:54:36.821Z,101161.75
2022-10-22T11:57:15.598Z,101163.63
2022-10-22T11:59:51.749Z,101166.66
2022-10-22T12:02:44.584Z,101154.41
2022-10-22T12:05:24.932Z,101161.84
2022-10-22T12:08:06.946Z,101160.56
2022-10-22T12:11:01.689Z,101163.41
2022-10-22T12:13:58.490Z,101153.50
2022-10-22T12:16:55.330Z,101156.41
2022-10-22T12:19:23.347Z,101146.50
2022-10-22T12:22:21.464Z,101135.50
2022-10-22T12:24:54.807Z,101138.56
2022-10-22T12:27:35.221Z,101140.47
2022-10-22T12:30:16.432Z,101138.41
2022-10-22T12:32:44.498Z,101139.91
2022-10-22T12:35:22.126Z,101133.94
2022-10-22T12:37:55.773Z,101125.06
2022-10-22T12:40:29.361Z,101132.72
2022-10-22T12:43:02.727Z,101141.34
2022-10-22T12:45:33.285Z,101147.09
2022-10-22T12:48:05.755Z,101136.53
2022-10-22T12:50:41.395Z,101131.41
2022-10-22T12:53:37.813Z,101135.72
2022-10-22T12:56:11.150Z,101136.28
2022-10-22T12:58:52.102Z,101142.50
2022-10-22T13:01:19.529Z,101145.09
2022-10-22T13:04:02.460Z,101142.88
2022-10-22T13:06:29.636Z,101141.41
2022-10-22T13:09:02.286Z,101130.31
2022-10-22T13:11:55.439Z,101135.72
2022-10-22T13:14:27.515Z,101139.16
2022-10-22T13:17:16.974Z,101138.03
2022-10-22T13:19:54.944Z,101130.84
2022-10-22T13:22:35.582Z,101132.91
2022-10-22T13:25:19.771Z,101129.97
2022-10-22T13:28:01.493Z,101128.34
2022-10-22T13:30:35.963Z,101127.06
2022-10-22T13:33:05.384Z,101131.84
2022-10-22T13:35:36.685Z,101126.28
2022-10-22T13:38:18.577Z,101116.59
2022-10-22T13:40:46.140Z,101131.94
2022-10-22T13:43:13.124Z,101129.25
2022-10-22T13:45:40.496Z,101138.88
2022-10-22T13:48:14.687Z,101130.59
2022-10-22T13:50:41.850Z,101134.34
2022-10-22T13:53:19.651Z,101150.00
2022-10-22T13:55:47.607Z,101141.59
2022-10-22T14:00:57.146Z,101125.41
2022-10-22T14:03:29.435Z,101136.78
2022-10-22T14:05:57.047Z,101133.34
2022-10-22T14:08:25.950Z,101129.06
2022-10-22T14:10:54.023Z,101126.69
2022-10-22T14:13:22.073Z,101127.31
2022-10-22T14:15:51.550Z,101125.06
2022-10-22T14:18:29.030Z,101127.06
2022-10-22T14:21:00.086Z,101131.34
2022-10-22T14:23:31.678Z,101129.09
2022-10-22T14:25:59.973Z,101133.72
2022-10-22T14:28:27.392Z,101142.00
2022-10-22T14:30:54.869Z,101135.44
2022-10-22T14:33:28.869Z,101137.50
2022-10-22T14:36:00.563Z,101133.13
2022-10-22T14:38:28.747Z,101135.31
2022-10-22T14:40:55.988Z,101140.94
2022-10-22T14:43:27.839Z,101131.13
2022-10-22T14:45:55.350Z,101140.91
2022-10-22T14:48:22.280Z,101139.16
2022-10-22T14:50:49.480Z,101133.59
2022-10-22T14:53:17.354Z,101152.13
2022-10-22T14:55:47.306Z,101147.28
2022-10-22T14:58:14.945Z,101139.31
2022-10-22T15:00:43.526Z,101142.06
2022-10-22T15:03:11.607Z,101135.44
2022-10-22T15:05:44.590Z,101132.91
2022-10-22T15:08:15.516Z,101143.81
2022-10-22T15:10:42.532Z,101145.44
2022-10-22T15:13:09.987Z,101147.03
2022-10-22T15:15:40.487Z,101138.09
2022-10-22T15:18:07.751Z,101134.25
2022-10-22T15:20:34.720Z,101132.84
2022-10-22T15:23:01.688Z,101129.63
2022-10-22T15:25:28.829Z,101135.53
2022-10-22T15:28:00.745Z,101129.31
2022-10-22T15:30:28.932Z,101134.66
2022-10-22T15:32:55.890Z,101129.59
2022-10-22T15:35:22.902Z,101123.59
2022-10-22T15:37:51.901Z,101136.00
2022-10-22T15:40:18.828Z,101133.00
2022-10-22T15:42:46.663Z,101140.06
2022-10-22T15:45:13.617Z,101132.56
2022-10-22T15:47:40.937Z,101136.81
2022-10-22T15:50:08.770Z,101144.78
2022-10-22T15:52:36.106Z,101147.84
2022-10-22T15:55:06.990Z,101154.00
2022-10-22T15:57:34.036Z,101151.75
2022-10-22T16:00:00.906Z,101146.53
2022-10-22T16:02:27.844Z,101149.81
2022-10-22T16:04:54.748Z,101140.47
2022-10-22T16:07:23.969Z,101143.09
2022-10-22T16:09:58.931Z,101134.47
2022-10-22T16:12:26.243Z,101140.56
2022-10-22T16:14:53.295Z,101138.19
2022-10-22T16:17:20.205Z,101148.75
2022-10-22T16:19:48.367Z,101157.81
2022-10-22T16:22:15.803Z,101146.72
2022-10-22T16:24:42.928Z,101134.63
2022-10-22T16:27:10.665Z,101140.69
2022-10-22T16:29:39.342Z,101142.56
2022-10-22T16:32:06.632Z,101134.88
2022-10-22T16:34:33.770Z,101125.94
2022-10-22T16:37:00.800Z,101137.88
2022-10-22T16:39:27.792Z,101139.31
2022-10-22T16:41:54.700Z,101141.91
2022-10-22T16:44:21.605Z,101129.13
2022-10-22T16:46:48.659Z,101143.84
2022-10-22T16:49:15.543Z,101131.56
2022-10-22T16:51:42.664Z,101141.28
2022-10-22T16:54:14.095Z,101139.22
2022-10-22T16:56:41.145Z,101150.53
2022-10-22T16:59:08.233Z,101144.13
2022-10-22T17:01:40.362Z,101147.34
2022-10-22T17:04:08.663Z,101152.09
2022-10-22T17:06:35.658Z,101150.63
2022-10-22T17:09:03.451Z,101145.53
2022-10-22T17:11:34.816Z,101154.91
2022-10-22T17:14:03.167Z,101156.66
2022-10-22T17:16:30.476Z,101155.44
2022-10-22T17:18:58.285Z,101159.34
2022-10-22T17:21:25.619Z,101151.56
2022-10-22T17:23:57.153Z,101153.59
2022-10-22T17:26:26.907Z,101162.56
2022-10-22T17:28:54.823Z,101157.19
2022-10-22T17:31:26.472Z,101158.00
2022-10-22T17:33:55.680Z,101153.09
2022-10-22T17:36:25.098Z,101161.09
2022-10-22T17:38:58.293Z,101163.81
2022-10-22T17:41:30.255Z,101156.38
2022-10-22T17:44:01.791Z,101143.56
2022-10-22T17:46:31.146Z,101154.97
2022-10-22T17:49:04.999Z,101154.41
2022-10-22T17:51:32.754Z,101152.22
2022-10-22T17:53:59.977Z,101154.50
2022-10-22T17:56:30.400Z,101160.56
2022-10-22T17:58:59.671Z,101160.13
2022-10-22T18:01:34.099Z,101165.88
2022-10-22T18:04:07.966Z,101169.84
2022-10-22T18:06:35.511Z,101169.19
2022-10-22T18:09:08.202Z,101180.00
2022-10-22T18:11:39.359Z,101186.00
2022-10-22T18:14:06.312Z,101183.34
2022-10-22T18:16:33.263Z,101191.88
2022-10-22T18:19:00.434Z,101184.22
2022-10-22T18:21:29.934Z,101178.78
2022-10-22T18:23:59.435Z,101170.81
2022-10-22T18:26:27.087Z,101178.03
2022-10-22T18:28:55.350Z,101177.00
2022-10-22T18:31:24.719Z,101178.09
2022-10-22T18:36:23.199Z,101170.03
2022-10-22T18:38:59.757Z,101178.78
2022-10-22T18:41:28.370Z,101164.06
2022-10-22T18:43:58.525Z,101171.81
2022-10-22T18:46:26.874Z,101167.16
2022-10-22T18:48:58.745Z,101163.03
2022-10-22T18:51:31.577Z,101158.88
2022-10-22T18:54:05.408Z,101156.72
2022-10-22T18:56:45.076Z,101147.94
2022-10-22T18:59:22.008Z,101145.75
2022-10-22T19:01:49.372Z,101149.56
2022-10-22T19:04:16.646Z,101166.22
2022-10-22T19:06:45.793Z,101160.75
2022-10-22T19:09:15.322Z,101159.72
2022-10-22T19:11:44.838Z,101149.41
2022-10-22T19:14:14.723Z,101146.50
2022-10-22T19:16:41.686Z,101147.63
2022-10-22T19:19:08.870Z,101143.84
2022-10-22T19:21:36.938Z,101150.94
2022-10-22T19:24:04.333Z,101142.69
2022-10-22T19:26:31.768Z,101142.06
2022-10-22T19:29:00.008Z,101143.16
2022-10-22T19:31:29.963Z,101158.28
2022-10-22T19:33:59.004Z,101157.69
2022-10-22T19:36:30.141Z,101161.78
2022-10-22T19:38:58.280Z,101170.56
2022-10-22T19:41:28.302Z,101158.44
2022-10-22T19:43:56.472Z,101158.56
2022-10-22T19:46:25.773Z,101157.41
2022-10-22T19:48:54.259Z,101152.66
2022-10-22T19:51:27.357Z,101154.28
2022-10-22T19:54:03.965Z,101155.34
2022-10-22T19:56:32.844Z,101158.53
2022-10-22T19:59:00.105Z,101175.81
2022-10-22T20:01:27.493Z,101168.16
2022-10-22T20:03:54.732Z,101164.41
2022-10-22T20:06:23.608Z,101165.22
2022-10-22T20:08:53.769Z,101155.94
2022-10-22T20:11:27.680Z,101155.47
2022-10-22T20:13:56.730Z,101152.91
2022-10-22T20:16:28.680Z,101161.34
2022-10-22T20:19:04.435Z,101164.22
2022-10-22T20:21:31.808Z,101155.22
2022-10-22T20:23:59.058Z,101147.06
2022-10-22T20:26:28.204Z,101161.69
2022-10-22T20:28:56.902Z,101148.53
2022-10-22T20:31:27.084Z,101142.44
2022-10-22T20:34:01.316Z,101141.41
2022-10-22T20:36:30.259Z,101140.66
2022-10-22T20:39:12.221Z,101140.06
2022-10-22T20:41:40.499Z,101140.63
2022-10-22T20:44:13.264Z,101141.91
2022-10-22T20:46:40.168Z,101143.47
2022-10-22T20:49:26.567Z,101134.91
2022-10-22T20:51:53.535Z,101148.69
2022-10-22T20:54:20.684Z,101148.88
2022-10-22T20:56:48.064Z,101141.34
2022-10-22T20:59:15.650Z,101147.78
2022-10-22T21:01:48.387Z,101152.56
2022-10-22T21:04:17.619Z,101136.75
2022-10-22T21:06:44.572Z,101148.53
2022-10-22T21:09:14.179Z,101141.59
2022-10-22T21:11:43.135Z,101146.09
2022-10-22T21:14:13.130Z,101138.66
2022-10-22T21:16:50.061Z,101145.44
2022-10-22T21:19:19.258Z,101141.69
2022-10-22T21:21:46.243Z,101142.28
2022-10-22T21:24:13.296Z,101135.59
2022-10-22T21:26:42.165Z,101133.22
2022-10-22T21:29:10.908Z,101133.94
2022-10-22T21:31:39.415Z,101135.25
2022-10-22T21:34:06.408Z,101147.66
2022-10-22T21:36:33.435Z,101150.19
2022-10-22T21:39:02.275Z,101143.31
2022-10-22T21:41:29.258Z,101149.31
2022-10-22T21:43:56.239Z,101165.66
2022-10-22T21:46:25.940Z,101169.16
2022-10-22T21:49:02.496Z,101153.97
2022-10-22T21:51:33.959Z,101154.44
2022-10-22T21:54:01.147Z,101146.63
2022-10-22T21:56:34.653Z,101139.69
2022-10-22T21:59:03.539Z,101150.16
2022-10-22T22:01:30.809Z,101149.28
2022-10-22T22:03:58.000Z,101150.34
2022-10-22T22:06:30.699Z,101145.16
2022-10-22T22:08:59.237Z,101139.31
2022-10-22T22:11:27.823Z,101141.44
2022-10-22T22:13:56.893Z,101144.25
2022-10-22T22:16:28.697Z,101147.06
2022-10-22T22:18:58.486Z,101144.47
2022-10-22T22:21:25.531Z,101156.13
2022-10-22T22:23:52.506Z,101158.25
2022-10-22T22:26:26.660Z,101143.09
2022-10-22T22:28:57.919Z,101152.31
2022-10-22T22:31:35.550Z,101145.91
2022-10-22T22:34:07.212Z,101149.56
2022-10-22T22:36:38.730Z,101148.56
2022-10-22T22:39:15.103Z,101142.03
2022-10-22T22:41:42.946Z,101134.09
2022-10-22T22:44:10.545Z,101120.69
2022-10-22T22:46:37.995Z,101122.41
2022-10-22T22:49:05.500Z,101115.66
2022-10-22T22:51:32.735Z,101102.81
2022-10-22T22:54:01.328Z,101103.38
2022-10-22T22:56:31.243Z,101097.88
2022-10-22T22:58:58.602Z,101093.38
2022-10-22T23:01:31.721Z,101082.34
2022-10-22T23:04:11.748Z,101089.25
2022-10-22T23:06:39.266Z,101084.69
2022-10-22T23:09:10.366Z,101079.03
2022-10-22T23:11:37.791Z,101080.38
2022-10-22T23:14:06.970Z,101077.16
2022-10-22T23:16:37.699Z,101076.31
2022-10-22T23:19:05.632Z,101073.66
2022-10-22T23:21:36.717Z,101066.03
2022-10-22T23:24:08.384Z,101060.16
2022-10-22T23:26:41.749Z,101059.59
2022-10-22T23:29:25.103Z,101051.06
2022-10-22T23:31:53.036Z,101057.59
2022-10-22T23:34:23.729Z,101051.66
2022-10-22T23:36:51.651Z,101055.94
2022-10-22T23:39:22.994Z,101064.53
2022-10-22T23:41:50.967Z,101056.75
2022-10-22T23:44:18.064Z,101054.69
2022-10-22T23:46:45.051Z,101051.28
2022-10-22T23:49:13.220Z,101039.22
2022-10-22T23:51:40.856Z,101044.09
2022-10-22T23:54:12.886Z,101045.94
2022-10-22T23:56:39.879Z,101041.94
2022-10-22T23:59:08.288Z,101051.03
